sensor_id;sensor_type;location;lat;lon;timestamp;P1;durP1;ratioP1;P2;durP2;ratioP2
49392;SDS011;35268;42.642;23.308;2023-05-16T00:01:45;25.38;;;11.55;;
49392;SDS011;35268;42.642;23.308;2023-05-16T00:04:11;17.48;;;11.57;;
49392;SDS011;35268;42.642;23.308;2023-05-16T00:06:36;15.63;;;10.95;;
49392;SDS011;35268;42.642;23.308;2023-05-16T00:09:02;17.98;;;11.25;;
49392;SDS011;35268;42.642;23.308;2023-05-16T00:11:27;22.55;;;11.70;;
49392;SDS011;35268;42.642;23.308;2023-05-16T00:13:53;24.15;;;12.20;;
49392;SDS011;35268;42.642;23.308;2023-05-16T00:16:18;19.50;;;12.25;;
49392;SDS011;35268;42.642;23.308;2023-05-16T00:18:45;28.60;;;11.75;;
49392;SDS011;35268;42.642;23.308;2023-05-16T00:21:11;22.50;;;12.82;;
49392;SDS011;35268;42.642;23.308;2023-05-16T00:23:37;18.90;;;11.82;;
49392;SDS011;35268;42.642;23.308;2023-05-16T00:26:03;19.80;;;11.48;;
49392;SDS011;35268;42.642;23.308;2023-05-16T00:28:28;22.42;;;11.85;;
49392;SDS011;35268;42.642;23.308;2023-05-16T00:30:54;19.20;;;12.52;;
49392;SDS011;35268;42.642;23.308;2023-05-16T00:33:20;19.05;;;12.38;;
49392;SDS011;35268;42.642;23.308;2023-05-16T00:35:45;18.70;;;12.43;;
49392;SDS011;35268;42.642;23.308;2023-05-16T00:38:11;20.00;;;11.70;;
49392;SDS011;35268;42.642;23.308;2023-05-16T00:40:36;21.65;;;13.38;;
49392;SDS011;35268;42.642;23.308;2023-05-16T00:43:02;22.23;;;12.70;;
49392;SDS011;35268;42.642;23.308;2023-05-16T00:45:28;26.35;;;13.60;;
49392;SDS011;35268;42.642;23.308;2023-05-16T00:47:53;23.48;;;12.60;;
49392;SDS011;35268;42.642;23.308;2023-05-16T00:50:19;21.15;;;12.13;;
49392;SDS011;35268;42.642;23.308;2023-05-16T00:52:45;19.17;;;12.85;;
49392;SDS011;35268;42.642;23.308;2023-05-16T00:55:11;19.50;;;11.98;;
49392;SDS011;35268;42.642;23.308;2023-05-16T00:57:37;25.33;;;12.90;;
49392;SDS011;35268;42.642;23.308;2023-05-16T01:00:06;26.88;;;11.40;;
49392;SDS011;35268;42.642;23.308;2023-05-16T01:02:36;24.52;;;12.27;;
49392;SDS011;35268;42.642;23.308;2023-05-16T01:05:02;23.15;;;11.55;;
49392;SDS011;35268;42.642;23.308;2023-05-16T01:07:32;19.88;;;11.15;;
49392;SDS011;35268;42.642;23.308;2023-05-16T01:09:58;19.63;;;11.90;;
49392;SDS011;35268;42.642;23.308;2023-05-16T01:20:40;20.08;;;11.10;;
49392;SDS011;35268;42.642;23.308;2023-05-16T01:23:18;21.35;;;12.88;;
49392;SDS011;35268;42.642;23.308;2023-05-16T01:28:29;22.77;;;13.00;;
49392;SDS011;35268;42.642;23.308;2023-05-16T01:30:56;19.50;;;12.65;;
49392;SDS011;35268;42.642;23.308;2023-05-16T01:33:21;16.58;;;12.55;;
49392;SDS011;35268;42.642;23.308;2023-05-16T01:38:35;21.15;;;11.93;;
49392;SDS011;35268;42.642;23.308;2023-05-16T01:41:20;25.10;;;12.43;;
49392;SDS011;35268;42.642;23.308;2023-05-16T01:43:53;18.45;;;12.60;;
49392;SDS011;35268;42.642;23.308;2023-05-16T01:46:27;23.50;;;13.23;;
49392;SDS011;35268;42.642;23.308;2023-05-16T01:52:08;18.13;;;11.82;;
49392;SDS011;35268;42.642;23.308;2023-05-16T01:54:38;19.30;;;12.90;;
49392;SDS011;35268;42.642;23.308;2023-05-16T01:57:09;19.00;;;11.73;;
49392;SDS011;35268;42.642;23.308;2023-05-16T01:59:35;17.88;;;11.75;;
49392;SDS011;35268;42.642;23.308;2023-05-16T02:02:03;26.58;;;12.68;;
49392;SDS011;35268;42.642;23.308;2023-05-16T02:04:28;19.55;;;12.40;;
49392;SDS011;35268;42.642;23.308;2023-05-16T02:06:54;20.48;;;12.13;;
49392;SDS011;35268;42.642;23.308;2023-05-16T02:09:20;19.23;;;12.25;;
49392;SDS011;35268;42.642;23.308;2023-05-16T02:11:45;18.15;;;11.73;;
49392;SDS011;35268;42.642;23.308;2023-05-16T02:14:11;19.08;;;12.48;;
49392;SDS011;35268;42.642;23.308;2023-05-16T02:16:38;15.98;;;11.93;;
49392;SDS011;35268;42.642;23.308;2023-05-16T02:19:03;20.77;;;12.20;;
49392;SDS011;35268;42.642;23.308;2023-05-16T02:21:29;21.25;;;11.40;;
49392;SDS011;35268;42.642;23.308;2023-05-16T02:23:55;16.92;;;11.40;;
49392;SDS011;35268;42.642;23.308;2023-05-16T02:26:20;30.88;;;12.50;;
49392;SDS011;35268;42.642;23.308;2023-05-16T02:28:46;20.17;;;11.27;;
49392;SDS011;35268;42.642;23.308;2023-05-16T02:31:23;19.10;;;11.52;;
49392;SDS011;35268;42.642;23.308;2023-05-16T02:33:52;16.95;;;10.82;;
49392;SDS011;35268;42.642;23.308;2023-05-16T02:36:17;18.05;;;11.85;;
49392;SDS011;35268;42.642;23.308;2023-05-16T02:38:43;16.20;;;10.65;;
49392;SDS011;35268;42.642;23.308;2023-05-16T02:41:08;17.52;;;12.02;;
49392;SDS011;35268;42.642;23.308;2023-05-16T02:43:33;25.52;;;11.27;;
49392;SDS011;35268;42.642;23.308;2023-05-16T02:45:59;21.15;;;11.50;;
49392;SDS011;35268;42.642;23.308;2023-05-16T02:48:25;18.25;;;11.77;;
49392;SDS011;35268;42.642;23.308;2023-05-16T02:50:50;20.80;;;11.90;;
49392;SDS011;35268;42.642;23.308;2023-05-16T02:53:16;15.13;;;11.27;;
49392;SDS011;35268;42.642;23.308;2023-05-16T02:55:41;21.25;;;12.98;;
49392;SDS011;35268;42.642;23.308;2023-05-16T02:58:07;18.48;;;12.07;;
49392;SDS011;35268;42.642;23.308;2023-05-16T03:00:32;20.92;;;12.85;;
49392;SDS011;35268;42.642;23.308;2023-05-16T03:02:58;19.00;;;11.43;;
49392;SDS011;35268;42.642;23.308;2023-05-16T03:05:23;20.10;;;11.02;;
49392;SDS011;35268;42.642;23.308;2023-05-16T03:07:49;20.98;;;11.65;;
49392;SDS011;35268;42.642;23.308;2023-05-16T03:10:15;16.92;;;11.05;;
49392;SDS011;35268;42.642;23.308;2023-05-16T03:12:40;17.30;;;11.25;;
49392;SDS011;35268;42.642;23.308;2023-05-16T03:15:06;15.85;;;11.38;;
49392;SDS011;35268;42.642;23.308;2023-05-16T03:17:33;17.75;;;12.18;;
49392;SDS011;35268;42.642;23.308;2023-05-16T03:19:58;21.63;;;11.30;;
49392;SDS011;35268;42.642;23.308;2023-05-16T03:22:24;21.75;;;12.55;;
49392;SDS011;35268;42.642;23.308;2023-05-16T03:24:49;19.10;;;11.43;;
49392;SDS011;35268;42.642;23.308;2023-05-16T03:27:15;15.48;;;11.05;;
49392;SDS011;35268;42.642;23.308;2023-05-16T03:29:40;18.83;;;11.07;;
49392;SDS011;35268;42.642;23.308;2023-05-16T03:32:06;15.70;;;11.30;;
49392;SDS011;35268;42.642;23.308;2023-05-16T03:34:31;15.75;;;10.40;;
49392;SDS011;35268;42.642;23.308;2023-05-16T03:36:57;18.88;;;11.70;;
49392;SDS011;35268;42.642;23.308;2023-05-16T03:39:22;17.85;;;11.20;;
49392;SDS011;35268;42.642;23.308;2023-05-16T03:41:48;20.25;;;11.10;;
49392;SDS011;35268;42.642;23.308;2023-05-16T03:44:13;24.17;;;12.77;;
49392;SDS011;35268;42.642;23.308;2023-05-16T03:46:39;24.98;;;12.10;;
49392;SDS011;35268;42.642;23.308;2023-05-16T03:49:04;21.42;;;11.05;;
49392;SDS011;35268;42.642;23.308;2023-05-16T03:51:30;26.48;;;11.93;;
49392;SDS011;35268;42.642;23.308;2023-05-16T03:53:55;19.27;;;11.15;;
49392;SDS011;35268;42.642;23.308;2023-05-16T03:56:21;24.92;;;11.57;;
49392;SDS011;35268;42.642;23.308;2023-05-16T03:58:47;24.05;;;10.88;;
49392;SDS011;35268;42.642;23.308;2023-05-16T04:01:13;23.45;;;11.35;;
49392;SDS011;35268;42.642;23.308;2023-05-16T04:03:38;28.45;;;11.80;;
49392;SDS011;35268;42.642;23.308;2023-05-16T04:06:06;31.88;;;12.65;;
49392;SDS011;35268;42.642;23.308;2023-05-16T04:08:32;19.52;;;11.18;;
49392;SDS011;35268;42.642;23.308;2023-05-16T04:10:57;19.65;;;11.70;;
49392;SDS011;35268;42.642;23.308;2023-05-16T04:13:23;22.67;;;12.52;;
49392;SDS011;35268;42.642;23.308;2023-05-16T04:15:49;23.88;;;11.15;;
49392;SDS011;35268;42.642;23.308;2023-05-16T04:18:15;20.23;;;11.52;;
49392;SDS011;35268;42.642;23.308;2023-05-16T04:20:41;19.33;;;12.98;;
49392;SDS011;35268;42.642;23.308;2023-05-16T04:23:07;23.25;;;12.93;;
49392;SDS011;35268;42.642;23.308;2023-05-16T04:25:35;20.70;;;12.90;;
49392;SDS011;35268;42.642;23.308;2023-05-16T04:28:01;18.98;;;11.45;;
49392;SDS011;35268;42.642;23.308;2023-05-16T04:30:27;20.33;;;10.93;;
49392;SDS011;35268;42.642;23.308;2023-05-16T04:32:52;19.65;;;11.77;;
49392;SDS011;35268;42.642;23.308;2023-05-16T04:35:18;20.10;;;12.27;;
49392;SDS011;35268;42.642;23.308;2023-05-16T04:37:43;22.45;;;12.02;;
49392;SDS011;35268;42.642;23.308;2023-05-16T04:40:09;22.95;;;13.18;;
49392;SDS011;35268;42.642;23.308;2023-05-16T04:42:37;20.25;;;13.18;;
49392;SDS011;35268;42.642;23.308;2023-05-16T04:45:02;25.52;;;12.98;;
49392;SDS011;35268;42.642;23.308;2023-05-16T04:47:30;26.40;;;12.38;;
49392;SDS011;35268;42.642;23.308;2023-05-16T04:49:56;25.38;;;12.77;;
49392;SDS011;35268;42.642;23.308;2023-05-16T04:52:21;23.90;;;14.02;;
49392;SDS011;35268;42.642;23.308;2023-05-16T04:54:49;22.75;;;13.38;;
49392;SDS011;35268;42.642;23.308;2023-05-16T04:57:16;24.92;;;12.02;;
49392;SDS011;35268;42.642;23.308;2023-05-16T04:59:41;15.38;;;10.93;;
49392;SDS011;35268;42.642;23.308;2023-05-16T05:02:10;21.52;;;12.45;;
49392;SDS011;35268;42.642;23.308;2023-05-16T05:04:35;21.02;;;12.85;;
49392;SDS011;35268;42.642;23.308;2023-05-16T05:07:02;17.52;;;12.05;;
49392;SDS011;35268;42.642;23.308;2023-05-16T05:09:27;17.90;;;12.07;;
49392;SDS011;35268;42.642;23.308;2023-05-16T05:11:53;19.50;;;11.75;;
49392;SDS011;35268;42.642;23.308;2023-05-16T05:14:18;23.67;;;13.45;;
49392;SDS011;35268;42.642;23.308;2023-05-16T05:16:44;23.88;;;11.52;;
49392;SDS011;35268;42.642;23.308;2023-05-16T05:19:09;26.45;;;11.82;;
49392;SDS011;35268;42.642;23.308;2023-05-16T05:21:35;28.00;;;12.32;;
49392;SDS011;35268;42.642;23.308;2023-05-16T05:24:00;23.00;;;11.77;;
49392;SDS011;35268;42.642;23.308;2023-05-16T05:26:26;16.08;;;10.65;;
49392;SDS011;35268;42.642;23.308;2023-05-16T05:28:53;33.33;;;12.50;;
49392;SDS011;35268;42.642;23.308;2023-05-16T05:31:18;23.15;;;11.73;;
49392;SDS011;35268;42.642;23.308;2023-05-16T05:33:44;24.90;;;12.35;;
49392;SDS011;35268;42.642;23.308;2023-05-16T05:36:09;43.30;;;17.80;;
49392;SDS011;35268;42.642;23.308;2023-05-16T05:38:35;27.08;;;11.43;;
49392;SDS011;35268;42.642;23.308;2023-05-16T05:41:00;24.55;;;12.60;;
49392;SDS011;35268;42.642;23.308;2023-05-16T05:43:26;19.15;;;11.45;;
49392;SDS011;35268;42.642;23.308;2023-05-16T05:45:52;26.15;;;10.93;;
49392;SDS011;35268;42.642;23.308;2023-05-16T05:48:18;20.83;;;11.68;;
49392;SDS011;35268;42.642;23.308;2023-05-16T05:50:44;21.92;;;11.73;;
49392;SDS011;35268;42.642;23.308;2023-05-16T05:53:12;25.40;;;10.55;;
49392;SDS011;35268;42.642;23.308;2023-05-16T05:55:38;30.00;;;11.13;;
49392;SDS011;35268;42.642;23.308;2023-05-16T05:58:05;24.70;;;11.82;;
49392;SDS011;35268;42.642;23.308;2023-05-16T06:00:31;18.40;;;9.90;;
49392;SDS011;35268;42.642;23.308;2023-05-16T06:02:56;19.65;;;11.48;;
49392;SDS011;35268;42.642;23.308;2023-05-16T06:05:28;21.88;;;11.45;;
49392;SDS011;35268;42.642;23.308;2023-05-16T06:07:54;23.23;;;11.35;;
49392;SDS011;35268;42.642;23.308;2023-05-16T06:10:19;23.23;;;10.55;;
49392;SDS011;35268;42.642;23.308;2023-05-16T06:12:45;17.90;;;10.02;;
49392;SDS011;35268;42.642;23.308;2023-05-16T06:15:10;17.95;;;9.48;;
49392;SDS011;35268;42.642;23.308;2023-05-16T06:17:36;28.55;;;9.98;;
49392;SDS011;35268;42.642;23.308;2023-05-16T06:20:02;25.42;;;10.13;;
49392;SDS011;35268;42.642;23.308;2023-05-16T06:22:28;26.25;;;10.48;;
49392;SDS011;35268;42.642;23.308;2023-05-16T06:24:54;20.50;;;10.75;;
49392;SDS011;35268;42.642;23.308;2023-05-16T06:27:20;16.88;;;10.18;;
49392;SDS011;35268;42.642;23.308;2023-05-16T06:29:45;18.83;;;9.45;;
49392;SDS011;35268;42.642;23.308;2023-05-16T06:32:10;22.40;;;9.63;;
49392;SDS011;35268;42.642;23.308;2023-05-16T06:34:36;28.17;;;9.95;;
49392;SDS011;35268;42.642;23.308;2023-05-16T06:37:02;16.80;;;10.15;;
49392;SDS011;35268;42.642;23.308;2023-05-16T06:39:28;20.00;;;8.25;;
49392;SDS011;35268;42.642;23.308;2023-05-16T06:41:53;25.80;;;9.18;;
49392;SDS011;35268;42.642;23.308;2023-05-16T06:44:19;19.75;;;8.90;;
49392;SDS011;35268;42.642;23.308;2023-05-16T06:46:44;20.73;;;9.35;;
49392;SDS011;35268;42.642;23.308;2023-05-16T06:49:10;15.23;;;7.93;;
49392;SDS011;35268;42.642;23.308;2023-05-16T06:51:35;15.52;;;8.13;;
49392;SDS011;35268;42.642;23.308;2023-05-16T06:54:01;14.85;;;8.82;;
49392;SDS011;35268;42.642;23.308;2023-05-16T06:56:29;22.73;;;8.52;;
49392;SDS011;35268;42.642;23.308;2023-05-16T06:58:55;22.92;;;7.93;;
49392;SDS011;35268;42.642;23.308;2023-05-16T07:01:20;20.73;;;8.80;;
49392;SDS011;35268;42.642;23.308;2023-05-16T07:03:46;31.60;;;8.93;;
49392;SDS011;35268;42.642;23.308;2023-05-16T07:06:11;22.33;;;8.35;;
49392;SDS011;35268;42.642;23.308;2023-05-16T07:08:37;28.20;;;9.98;;
49392;SDS011;35268;42.642;23.308;2023-05-16T07:11:02;16.70;;;6.90;;
49392;SDS011;35268;42.642;23.308;2023-05-16T07:13:28;14.77;;;6.78;;
49392;SDS011;35268;42.642;23.308;2023-05-16T07:15:53;18.27;;;7.03;;
49392;SDS011;35268;42.642;23.308;2023-05-16T07:18:19;22.10;;;7.30;;
49392;SDS011;35268;42.642;23.308;2023-05-16T07:20:44;18.05;;;6.32;;
49392;SDS011;35268;42.642;23.308;2023-05-16T07:23:10;13.75;;;6.35;;
49392;SDS011;35268;42.642;23.308;2023-05-16T07:25:36;11.27;;;6.72;;
49392;SDS011;35268;42.642;23.308;2023-05-16T07:28:02;29.02;;;6.70;;
49392;SDS011;35268;42.642;23.308;2023-05-16T07:30:27;16.40;;;7.15;;
49392;SDS011;35268;42.642;23.308;2023-05-16T07:32:53;13.25;;;6.45;;
49392;SDS011;35268;42.642;23.308;2023-05-16T07:35:19;22.38;;;6.75;;
49392;SDS011;35268;42.642;23.308;2023-05-16T07:37:44;25.42;;;8.27;;
49392;SDS011;35268;42.642;23.308;2023-05-16T07:40:10;31.42;;;8.05;;
49392;SDS011;35268;42.642;23.308;2023-05-16T07:42:36;23.75;;;7.38;;
49392;SDS011;35268;42.642;23.308;2023-05-16T07:45:01;16.70;;;6.40;;
49392;SDS011;35268;42.642;23.308;2023-05-16T07:47:27;12.93;;;6.80;;
49392;SDS011;35268;42.642;23.308;2023-05-16T07:49:53;16.33;;;7.55;;
49392;SDS011;35268;42.642;23.308;2023-05-16T07:52:18;13.07;;;7.05;;
49392;SDS011;35268;42.642;23.308;2023-05-16T07:54:45;16.50;;;7.72;;
49392;SDS011;35268;42.642;23.308;2023-05-16T07:57:12;17.15;;;7.43;;
49392;SDS011;35268;42.642;23.308;2023-05-16T07:59:39;21.67;;;7.32;;
49392;SDS011;35268;42.642;23.308;2023-05-16T08:02:04;29.52;;;8.50;;
49392;SDS011;35268;42.642;23.308;2023-05-16T08:04:32;24.17;;;9.27;;
49392;SDS011;35268;42.642;23.308;2023-05-16T08:06:57;15.55;;;7.72;;
49392;SDS011;35268;42.642;23.308;2023-05-16T08:09:23;38.38;;;7.20;;
49392;SDS011;35268;42.642;23.308;2023-05-16T08:11:48;16.08;;;6.20;;
49392;SDS011;35268;42.642;23.308;2023-05-16T08:14:14;16.77;;;7.55;;
49392;SDS011;35268;42.642;23.308;2023-05-16T08:16:40;12.95;;;7.50;;
49392;SDS011;35268;42.642;23.308;2023-05-16T08:19:05;19.00;;;6.57;;
49392;SDS011;35268;42.642;23.308;2023-05-16T08:21:31;20.23;;;7.03;;
49392;SDS011;35268;42.642;23.308;2023-05-16T08:23:57;16.35;;;6.97;;
49392;SDS011;35268;42.642;23.308;2023-05-16T08:26:22;22.20;;;7.13;;
49392;SDS011;35268;42.642;23.308;2023-05-16T08:28:49;24.42;;;6.88;;
49392;SDS011;35268;42.642;23.308;2023-05-16T08:31:14;24.60;;;7.32;;
49392;SDS011;35268;42.642;23.308;2023-05-16T08:33:40;16.98;;;6.60;;
49392;SDS011;35268;42.642;23.308;2023-05-16T08:36:06;16.08;;;6.65;;
49392;SDS011;35268;42.642;23.308;2023-05-16T08:38:31;19.92;;;7.38;;
49392;SDS011;35268;42.642;23.308;2023-05-16T08:40:57;21.05;;;7.10;;
49392;SDS011;35268;42.642;23.308;2023-05-16T08:43:23;16.85;;;6.50;;
49392;SDS011;35268;42.642;23.308;2023-05-16T08:45:51;18.25;;;6.18;;
49392;SDS011;35268;42.642;23.308;2023-05-16T08:48:16;14.23;;;6.07;;
49392;SDS011;35268;42.642;23.308;2023-05-16T08:50:47;19.05;;;5.82;;
49392;SDS011;35268;42.642;23.308;2023-05-16T08:53:13;18.27;;;6.13;;
49392;SDS011;35268;42.642;23.308;2023-05-16T08:55:41;13.95;;;5.60;;
49392;SDS011;35268;42.642;23.308;2023-05-16T08:58:12;21.05;;;6.00;;
49392;SDS011;35268;42.642;23.308;2023-05-16T09:00:38;14.00;;;5.50;;
49392;SDS011;35268;42.642;23.308;2023-05-16T09:03:07;19.38;;;6.47;;
49392;SDS011;35268;42.642;23.308;2023-05-16T09:05:33;20.55;;;6.70;;
49392;SDS011;35268;42.642;23.308;2023-05-16T09:07:59;23.00;;;5.68;;
49392;SDS011;35268;42.642;23.308;2023-05-16T09:10:25;9.15;;;5.72;;
49392;SDS011;35268;42.642;23.308;2023-05-16T09:12:51;17.17;;;7.43;;
49392;SDS011;35268;42.642;23.308;2023-05-16T09:15:17;11.23;;;5.40;;
49392;SDS011;35268;42.642;23.308;2023-05-16T09:17:45;13.45;;;5.57;;
49392;SDS011;35268;42.642;23.308;2023-05-16T09:20:15;12.15;;;5.47;;
49392;SDS011;35268;42.642;23.308;2023-05-16T09:22:52;21.63;;;6.43;;
49392;SDS011;35268;42.642;23.308;2023-05-16T09:25:21;12.75;;;5.60;;
49392;SDS011;35268;42.642;23.308;2023-05-16T09:27:51;17.00;;;6.28;;
49392;SDS011;35268;42.642;23.308;2023-05-16T09:30:26;14.32;;;6.40;;
49392;SDS011;35268;42.642;23.308;2023-05-16T09:32:54;25.17;;;7.85;;
49392;SDS011;35268;42.642;23.308;2023-05-16T09:35:20;14.50;;;6.00;;
49392;SDS011;35268;42.642;23.308;2023-05-16T09:37:46;18.70;;;6.55;;
49392;SDS011;35268;42.642;23.308;2023-05-16T09:40:19;10.95;;;5.93;;
49392;SDS011;35268;42.642;23.308;2023-05-16T09:42:51;14.38;;;6.10;;
49392;SDS011;35268;42.642;23.308;2023-05-16T09:45:32;13.00;;;6.25;;
49392;SDS011;35268;42.642;23.308;2023-05-16T09:48:05;16.90;;;5.80;;
49392;SDS011;35268;42.642;23.308;2023-05-16T09:50:35;10.98;;;5.70;;
49392;SDS011;35268;42.642;23.308;2023-05-16T09:53:02;15.27;;;7.38;;
49392;SDS011;35268;42.642;23.308;2023-05-16T09:55:28;14.50;;;6.20;;
49392;SDS011;35268;42.642;23.308;2023-05-16T09:57:55;15.73;;;7.00;;
49392;SDS011;35268;42.642;23.308;2023-05-16T10:00:20;16.83;;;6.78;;
49392;SDS011;35268;42.642;23.308;2023-05-16T10:02:46;15.90;;;6.18;;
49392;SDS011;35268;42.642;23.308;2023-05-16T10:05:13;17.42;;;6.65;;
49392;SDS011;35268;42.642;23.308;2023-05-16T10:07:40;13.95;;;6.80;;
49392;SDS011;35268;42.642;23.308;2023-05-16T10:10:07;16.05;;;7.55;;
49392;SDS011;35268;42.642;23.308;2023-05-16T10:12:33;10.55;;;5.88;;
49392;SDS011;35268;42.642;23.308;2023-05-16T10:15:01;23.02;;;6.13;;
49392;SDS011;35268;42.642;23.308;2023-05-16T10:17:33;14.38;;;5.88;;
49392;SDS011;35268;42.642;23.308;2023-05-16T10:20:01;11.70;;;5.85;;
49392;SDS011;35268;42.642;23.308;2023-05-16T10:22:31;11.70;;;5.85;;
49392;SDS011;35268;42.642;23.308;2023-05-16T10:25:07;15.40;;;5.97;;
49392;SDS011;35268;42.642;23.308;2023-05-16T10:27:44;25.10;;;6.63;;
49392;SDS011;35268;42.642;23.308;2023-05-16T10:30:13;19.15;;;6.70;;
49392;SDS011;35268;42.642;23.308;2023-05-16T10:32:40;22.48;;;6.60;;
49392;SDS011;35268;42.642;23.308;2023-05-16T10:35:06;12.90;;;6.68;;
49392;SDS011;35268;42.642;23.308;2023-05-16T10:37:33;16.65;;;6.78;;
49392;SDS011;35268;42.642;23.308;2023-05-16T10:40:00;17.23;;;6.68;;
49392;SDS011;35268;42.642;23.308;2023-05-16T10:42:32;28.05;;;7.53;;
49392;SDS011;35268;42.642;23.308;2023-05-16T10:45:17;20.63;;;6.88;;
49392;SDS011;35268;42.642;23.308;2023-05-16T10:47:54;20.15;;;6.53;;
49392;SDS011;35268;42.642;23.308;2023-05-16T10:50:31;13.65;;;6.75;;
49392;SDS011;35268;42.642;23.308;2023-05-16T10:53:20;19.80;;;8.27;;
49392;SDS011;35268;42.642;23.308;2023-05-16T11:01:14;16.52;;;6.88;;
49392;SDS011;35268;42.642;23.308;2023-05-16T11:06:22;16.42;;;6.32;;
49392;SDS011;35268;42.642;23.308;2023-05-16T11:19:48;19.37;;;5.63;;
49392;SDS011;35268;42.642;23.308;2023-05-16T11:25:00;13.43;;;5.50;;
49392;SDS011;35268;42.642;23.308;2023-05-16T11:27:42;15.32;;;6.05;;
49392;SDS011;35268;42.642;23.308;2023-05-16T11:32:36;16.13;;;5.55;;
49392;SDS011;35268;42.642;23.308;2023-05-16T11:35:05;20.30;;;7.03;;
49392;SDS011;35268;42.642;23.308;2023-05-16T11:37:33;20.25;;;5.47;;
49392;SDS011;35268;42.642;23.308;2023-05-16T11:40:03;15.50;;;5.20;;
49392;SDS011;35268;42.642;23.308;2023-05-16T11:42:33;20.10;;;5.25;;
49392;SDS011;35268;42.642;23.308;2023-05-16T11:45:09;15.93;;;6.32;;
49392;SDS011;35268;42.642;23.308;2023-05-16T11:47:37;23.02;;;5.78;;
49392;SDS011;35268;42.642;23.308;2023-05-16T11:50:11;18.92;;;5.43;;
49392;SDS011;35268;42.642;23.308;2023-05-16T11:52:38;13.23;;;5.40;;
49392;SDS011;35268;42.642;23.308;2023-05-16T11:55:07;12.70;;;5.40;;
49392;SDS011;35268;42.642;23.308;2023-05-16T11:57:35;18.77;;;6.00;;
49392;SDS011;35268;42.642;23.308;2023-05-16T12:00:03;29.90;;;6.55;;
49392;SDS011;35268;42.642;23.308;2023-05-16T12:02:35;16.38;;;5.95;;
49392;SDS011;35268;42.642;23.308;2023-05-16T12:05:05;14.85;;;6.18;;
49392;SDS011;35268;42.642;23.308;2023-05-16T12:07:33;12.57;;;6.43;;
49392;SDS011;35268;42.642;23.308;2023-05-16T12:10:03;22.23;;;6.13;;
49392;SDS011;35268;42.642;23.308;2023-05-16T12:12:39;25.65;;;6.43;;
49392;SDS011;35268;42.642;23.308;2023-05-16T12:15:10;12.88;;;5.80;;
49392;SDS011;35268;42.642;23.308;2023-05-16T12:17:37;15.93;;;5.90;;
49392;SDS011;35268;42.642;23.308;2023-05-16T12:20:04;20.55;;;7.40;;
49392;SDS011;35268;42.642;23.308;2023-05-16T12:22:31;24.63;;;5.78;;
49392;SDS011;35268;42.642;23.308;2023-05-16T12:27:51;21.52;;;5.90;;
49392;SDS011;35268;42.642;23.308;2023-05-16T12:30:17;17.63;;;5.70;;
49392;SDS011;35268;42.642;23.308;2023-05-16T12:32:51;12.77;;;4.82;;
49392;SDS011;35268;42.642;23.308;2023-05-16T12:35:17;19.23;;;5.63;;
49392;SDS011;35268;42.642;23.308;2023-05-16T12:37:42;16.13;;;5.47;;
49392;SDS011;35268;42.642;23.308;2023-05-16T12:40:08;11.15;;;6.00;;
49392;SDS011;35268;42.642;23.308;2023-05-16T12:42:36;17.90;;;5.50;;
49392;SDS011;35268;42.642;23.308;2023-05-16T12:45:02;22.17;;;5.97;;
49392;SDS011;35268;42.642;23.308;2023-05-16T12:47:35;19.42;;;6.57;;
49392;SDS011;35268;42.642;23.308;2023-05-16T12:50:02;14.15;;;6.85;;
49392;SDS011;35268;42.642;23.308;2023-05-16T12:52:32;24.50;;;6.05;;
49392;SDS011;35268;42.642;23.308;2023-05-16T12:54:58;19.55;;;7.03;;
49392;SDS011;35268;42.642;23.308;2023-05-16T12:57:24;24.52;;;6.25;;
49392;SDS011;35268;42.642;23.308;2023-05-16T12:59:50;17.50;;;5.22;;
49392;SDS011;35268;42.642;23.308;2023-05-16T13:02:15;16.23;;;6.13;;
49392;SDS011;35268;42.642;23.308;2023-05-16T13:04:42;20.02;;;6.53;;
49392;SDS011;35268;42.642;23.308;2023-05-16T13:07:08;15.07;;;5.32;;
49392;SDS011;35268;42.642;23.308;2023-05-16T13:09:35;15.48;;;5.78;;
49392;SDS011;35268;42.642;23.308;2023-05-16T13:12:01;23.17;;;8.45;;
49392;SDS011;35268;42.642;23.308;2023-05-16T13:14:27;31.60;;;8.30;;
49392;SDS011;35268;42.642;23.308;2023-05-16T13:16:55;23.33;;;9.50;;
49392;SDS011;35268;42.642;23.308;2023-05-16T13:19:21;14.55;;;7.68;;
49392;SDS011;35268;42.642;23.308;2023-05-16T13:21:48;17.20;;;7.90;;
49392;SDS011;35268;42.642;23.308;2023-05-16T13:24:13;24.48;;;9.68;;
49392;SDS011;35268;42.642;23.308;2023-05-16T13:26:38;17.70;;;7.68;;
49392;SDS011;35268;42.642;23.308;2023-05-16T13:29:04;16.23;;;7.88;;
49392;SDS011;35268;42.642;23.308;2023-05-16T13:31:29;22.77;;;7.35;;
49392;SDS011;35268;42.642;23.308;2023-05-16T13:33:55;15.82;;;6.72;;
49392;SDS011;35268;42.642;23.308;2023-05-16T13:36:20;23.35;;;8.65;;
49392;SDS011;35268;42.642;23.308;2023-05-16T13:38:46;23.80;;;7.60;;
49392;SDS011;35268;42.642;23.308;2023-05-16T13:41:12;32.90;;;16.23;;
49392;SDS011;35268;42.642;23.308;2023-05-16T13:43:38;42.10;;;17.38;;
49392;SDS011;35268;42.642;23.308;2023-05-16T13:46:03;30.48;;;10.60;;
49392;SDS011;35268;42.642;23.308;2023-05-16T13:48:29;31.60;;;9.75;;
49392;SDS011;35268;42.642;23.308;2023-05-16T13:50:54;28.65;;;8.85;;
49392;SDS011;35268;42.642;23.308;2023-05-16T13:53:20;24.17;;;9.10;;
49392;SDS011;35268;42.642;23.308;2023-05-16T13:55:45;30.17;;;9.43;;
49392;SDS011;35268;42.642;23.308;2023-05-16T13:58:10;22.15;;;9.80;;
49392;SDS011;35268;42.642;23.308;2023-05-16T14:00:36;25.75;;;9.55;;
49392;SDS011;35268;42.642;23.308;2023-05-16T14:03:01;46.28;;;10.57;;
49392;SDS011;35268;42.642;23.308;2023-05-16T14:05:27;24.80;;;9.40;;
49392;SDS011;35268;42.642;23.308;2023-05-16T14:07:53;37.75;;;9.82;;
49392;SDS011;35268;42.642;23.308;2023-05-16T14:10:18;26.70;;;10.05;;
49392;SDS011;35268;42.642;23.308;2023-05-16T14:12:44;24.70;;;9.52;;
49392;SDS011;35268;42.642;23.308;2023-05-16T14:15:09;24.17;;;9.30;;
49392;SDS011;35268;42.642;23.308;2023-05-16T14:17:35;31.23;;;9.93;;
49392;SDS011;35268;42.642;23.308;2023-05-16T14:20:00;30.45;;;9.88;;
49392;SDS011;35268;42.642;23.308;2023-05-16T14:22:26;31.73;;;9.57;;
49392;SDS011;35268;42.642;23.308;2023-05-16T14:24:52;20.98;;;10.98;;
49392;SDS011;35268;42.642;23.308;2023-05-16T14:27:18;19.90;;;10.10;;
49392;SDS011;35268;42.642;23.308;2023-05-16T14:29:43;24.88;;;11.05;;
49392;SDS011;35268;42.642;23.308;2023-05-16T14:32:09;34.67;;;10.02;;
49392;SDS011;35268;42.642;23.308;2023-05-16T14:34:35;24.38;;;10.23;;
49392;SDS011;35268;42.642;23.308;2023-05-16T14:37:01;23.60;;;10.45;;
49392;SDS011;35268;42.642;23.308;2023-05-16T14:39:27;20.60;;;10.75;;
49392;SDS011;35268;42.642;23.308;2023-05-16T14:41:52;22.67;;;10.40;;
49392;SDS011;35268;42.642;23.308;2023-05-16T14:44:18;30.25;;;10.48;;
49392;SDS011;35268;42.642;23.308;2023-05-16T14:46:45;27.65;;;9.32;;
49392;SDS011;35268;42.642;23.308;2023-05-16T14:49:11;27.02;;;10.48;;
49392;SDS011;35268;42.642;23.308;2023-05-16T14:51:36;24.17;;;11.38;;
49392;SDS011;35268;42.642;23.308;2023-05-16T14:54:02;22.25;;;10.68;;
49392;SDS011;35268;42.642;23.308;2023-05-16T14:56:28;29.48;;;10.90;;
49392;SDS011;35268;42.642;23.308;2023-05-16T14:58:53;23.02;;;10.65;;